Scottsburg, NY (14545)

3:42 AM EST on February 01, 2015 (GMT -0500)
Dacola Shores | Change Station
CLOSE
Current Station
Personal Weather Station
Location: Conesus, NY
Elevation: 850 ft
Nearby Weather Stations
Active Advisory: Winter Storm Warning

Elev 850 ft 42.73 °N, 77.71 °W | Updated 14 seconds ago

Overcast
Overcast
26.0 °F
Feels Like 26 °F
N
0.0
Wind Variable Wind from WNW
Gusts 0.0 mph

Today
High -- | Low -- °F
--% Chance of Precip.
Yesterday
High -- | Low -- °F
Precip. -- in
7:25 AM 5:23 PM
Waxing Gibbous, 94% visible
Pressure 30.20 in
Visibility 10.0 miles
Clouds Overcast 2200 ft
Windchill 26 °F
Dew Point 24 °F
Humidity 90%
Rainfall 0.00 in
Snow Depth Not available.
UV 0 out of 12
Pollen .10 out of 12
Air Quality Not available.
Flu Activity Not available.
METAR KDSV 010754Z AUTO 30007KT 10SM OVC022 M02/M07 A3015 RMK AO2 SNB36E45 SLP227 P0000 T10221067 $

More Conditions Fewer Conditions

Pressure 30.20 in
Visibility 10.0 miles
Clouds Overcast 2200 ft
Windchill 26 °F
Dew Point 24 °F
Humidity 90%
Rainfall 0.00 in
Snow Depth Not available.
UV 0 out of 12
Pollen .10 out of 12
Air Quality Not available.
Flu Activity Not available.
METAR KDSV 010754Z AUTO 30007KT 10SM OVC022 M02/M07 A3015 RMK AO2 SNB36E45 SLP227 P0000 T10221067 $

More Conditions Fewer Conditions

10-Day Weather Forecast

Almanac

Astronomy

Feb. 01, 2015 Rise Set
Actual Time
Civil Twilight
Nautical Twilight
Astronomical Twilight
Moon
Length of Visible Light
Length of Day
Tomorrow will be .
, % of the Moon is Illuminated

Today's Extremes

State Highs State Lows

Community

WunderPhotos

Upload Photos

1,792,338 photos uploaded!

WunderBlogs® & News

Nearby

Air Quality

  Air Quality AQ Index Pollutant
Not available.

Snow Depth

Station Depth Elevation

Earthquake Activity

City Distance Mag. Time & Date
Minimum magnitude displayed is 2.5.

Coastal Water Temperatures

Place Temperature

Nearby Weather Stations